createdAt,value
2018-09-03T00:01:01.009Z,100412.26
2018-09-03T00:03:34.334Z,100410.34
2018-09-03T00:06:07.702Z,100405.78
2018-09-03T00:08:42.333Z,100403.10
2018-09-03T00:11:15.660Z,100398.84
2018-09-03T00:13:48.921Z,100404.11
2018-09-03T00:16:22.810Z,100396.31
2018-09-03T00:18:56.149Z,100386.84
2018-09-03T00:21:30.752Z,100384.41
2018-09-03T00:24:05.035Z,100387.36
2018-09-03T00:26:38.314Z,100375.96
2018-09-03T00:29:12.644Z,100368.67
2018-09-03T00:31:52.043Z,100363.08
2018-09-03T00:34:37.212Z,100359.61
2018-09-03T00:37:19.112Z,100358.08
2018-09-03T00:39:57.184Z,100356.34
2018-09-03T00:42:35.372Z,100352.48
2018-09-03T00:45:12.922Z,100352.07
2018-09-03T00:47:45.481Z,100354.68
2018-09-03T00:50:18.272Z,100350.89
2018-09-03T00:52:50.676Z,100342.50
2018-09-03T00:55:26.109Z,100349.05
2018-09-03T00:57:58.924Z,100343.90
2018-09-03T01:00:32.404Z,100342.88
2018-09-03T01:03:05.040Z,100345.69
2018-09-03T01:05:39.244Z,100350.23
2018-09-03T01:08:11.908Z,100355.59
2018-09-03T01:10:44.661Z,100354.38
2018-09-03T01:13:17.945Z,100355.89
2018-09-03T01:15:50.424Z,100355.50
2018-09-03T01:18:22.996Z,100355.69
2018-09-03T01:20:56.831Z,100352.66
2018-09-03T01:23:29.362Z,100361.95
2018-09-03T01:26:01.739Z,100365.56
2018-09-03T01:28:36.645Z,100364.03
2018-09-03T01:31:11.412Z,100362.22
2018-09-03T01:33:46.615Z,100366.44
2018-09-03T01:36:20.959Z,100354.88
2018-09-03T01:38:55.235Z,100354.36
2018-09-03T01:41:28.740Z,100360.67
2018-09-03T01:44:02.432Z,100362.02
2018-09-03T01:46:34.912Z,100360.16
2018-09-03T01:49:07.456Z,100354.51
2018-09-03T01:51:41.108Z,100347.72
2018-09-03T01:54:14.425Z,100351.81
2018-09-03T01:56:47.735Z,100362.15
2018-09-03T01:59:21.636Z,100360.91
2018-09-03T02:01:54.525Z,100366.94
2018-09-03T02:04:51.498Z,100372.30
2018-09-03T02:07:26.944Z,100369.50
2018-09-03T02:09:59.726Z,100375.70
2018-09-03T02:12:32.831Z,100381.28
2018-09-03T02:15:12.550Z,100373.77
2018-09-03T02:17:45.735Z,100374.82
2018-09-03T02:20:21.514Z,100376.54
2018-09-03T02:22:54.606Z,100388.84
2018-09-03T02:25:31.406Z,100396.68
2018-09-03T02:28:03.955Z,100397.42
2018-09-03T02:30:38.482Z,100393.43
2018-09-03T02:33:12.518Z,100381.70
2018-09-03T02:35:45.749Z,100372.00
2018-09-03T02:38:18.972Z,100376.92
2018-09-03T02:40:52.510Z,100378.50
2018-09-03T02:43:26.769Z,100360.28
2018-09-03T02:45:59.694Z,100354.47
2018-09-03T02:48:32.223Z,100363.30
2018-09-03T02:51:06.271Z,100367.95
2018-09-03T02:53:39.148Z,100369.30
2018-09-03T02:56:15.568Z,100368.33
2018-09-03T02:58:48.746Z,100371.84
2018-09-03T03:01:22.609Z,100368.54
2018-09-03T03:03:55.198Z,100368.52
2018-09-03T03:06:27.854Z,100359.05
2018-09-03T03:09:03.562Z,100352.28
2018-09-03T03:11:38.062Z,100342.42
2018-09-03T03:14:10.581Z,100342.45
2018-09-03T03:16:43.400Z,100337.70
2018-09-03T03:19:16.021Z,100335.50
2018-09-03T03:21:48.955Z,100327.79
2018-09-03T03:24:21.919Z,100334.53
2018-09-03T03:26:54.576Z,100320.56
2018-09-03T03:29:27.083Z,100323.20
2018-09-03T03:32:01.148Z,100319.41
2018-09-03T03:34:33.496Z,100318.64
2018-09-03T03:37:06.319Z,100313.42
2018-09-03T03:39:39.320Z,100314.39
2018-09-03T03:42:11.861Z,100309.77
2018-09-03T03:44:44.692Z,100311.83
2018-09-03T03:47:18.455Z,100315.08
2018-09-03T03:49:51.809Z,100314.94
2018-09-03T03:52:24.693Z,100318.70
2018-09-03T03:54:58.721Z,100317.48
2018-09-03T03:57:31.199Z,100317.66
2018-09-03T04:00:06.292Z,100315.05
2018-09-03T04:02:39.166Z,100309.84
2018-09-03T04:05:13.297Z,100306.52
2018-09-03T04:07:47.693Z,100305.22
2018-09-03T04:10:21.037Z,100302.89
2018-09-03T04:12:57.656Z,100304.72
2018-09-03T04:15:30.073Z,100302.12
2018-09-03T04:18:04.191Z,100303.30
2018-09-03T04:20:36.636Z,100304.83
2018-09-03T04:23:09.421Z,100297.47
2018-09-03T04:25:43.712Z,100300.16
2018-09-03T04:28:16.813Z,100300.55
2018-09-03T04:30:50.700Z,100301.36
2018-09-03T04:33:24.545Z,100300.64
2018-09-03T04:35:57.056Z,100288.70
2018-09-03T04:38:29.657Z,100292.20
2018-09-03T04:41:02.347Z,100295.38
2018-09-03T04:43:34.809Z,100289.23
2018-09-03T04:46:08.480Z,100285.17
2018-09-03T04:48:41.376Z,100282.47
2018-09-03T04:51:14.100Z,100285.11
2018-09-03T04:53:46.695Z,100281.67
2018-09-03T04:56:21.129Z,100287.77
2018-09-03T04:58:53.927Z,100283.32
2018-09-03T05:01:26.503Z,100286.98
2018-09-03T05:03:59.336Z,100292.22
2018-09-03T05:06:31.913Z,100291.34
2018-09-03T05:09:05.772Z,100292.50
2018-09-03T05:11:39.684Z,100290.03
2018-09-03T05:14:13.054Z,100295.41
2018-09-03T05:16:49.164Z,100297.02
2018-09-03T05:19:23.946Z,100294.00
2018-09-03T05:21:59.292Z,100292.28
2018-09-03T05:24:33.515Z,100287.70
2018-09-03T05:27:06.399Z,100288.61
2018-09-03T05:29:40.309Z,100278.67
2018-09-03T05:32:13.964Z,100280.75
2018-09-03T05:34:47.065Z,100273.89
2018-09-03T05:37:19.857Z,100264.46
2018-09-03T05:39:55.661Z,100268.38
2018-09-03T05:42:28.140Z,100270.08
2018-09-03T05:45:01.214Z,100281.09
2018-09-03T05:47:34.805Z,100284.81
2018-09-03T05:50:07.673Z,100286.27
2018-09-03T05:52:41.687Z,100283.50
2018-09-03T05:55:14.532Z,100288.81
2018-09-03T05:57:47.077Z,100282.77
2018-09-03T06:00:24.527Z,100282.84
2018-09-03T06:02:57.069Z,100280.84
2018-09-03T06:05:29.626Z,100273.45
2018-09-03T06:08:07.212Z,100267.17
2018-09-03T06:10:40.126Z,100261.86
2018-09-03T06:13:12.448Z,100259.47
2018-09-03T06:15:47.937Z,100255.09
2018-09-03T06:18:21.284Z,100256.05
2018-09-03T06:20:54.615Z,100253.70
2018-09-03T06:23:28.673Z,100255.33
2018-09-03T06:26:01.368Z,100258.88
2018-09-03T06:28:35.186Z,100264.34
2018-09-03T06:31:08.565Z,100269.72
2018-09-03T06:33:42.196Z,100270.33
2018-09-03T06:36:14.860Z,100266.50
2018-09-03T06:38:48.284Z,100268.81
2018-09-03T06:41:20.952Z,100267.55
2018-09-03T06:43:55.276Z,100266.27
2018-09-03T06:46:28.862Z,100272.43
2018-09-03T06:49:02.192Z,100271.16
2018-09-03T06:51:36.273Z,100266.92
2018-09-03T06:54:12.394Z,100264.23
2018-09-03T06:56:45.616Z,100254.05
2018-09-03T06:59:19.784Z,100250.83
2018-09-03T07:01:54.226Z,100250.73
2018-09-03T07:04:27.348Z,100256.53
2018-09-03T07:07:00.972Z,100251.04
2018-09-03T07:09:34.135Z,100242.50
2018-09-03T07:12:07.748Z,100244.20
2018-09-03T07:14:43.939Z,100243.31
2018-09-03T07:17:17.248Z,100246.21
2018-09-03T07:19:56.862Z,100247.47
2018-09-03T07:22:32.924Z,100251.08
2018-09-03T07:25:06.196Z,100250.23
2018-09-03T07:27:38.840Z,100248.23
2018-09-03T07:30:13.685Z,100248.48
2018-09-03T07:32:47.146Z,100250.98
2018-09-03T07:35:21.885Z,100251.14
2018-09-03T07:37:54.529Z,100251.16
2018-09-03T07:40:27.832Z,100247.41
2018-09-03T07:43:03.554Z,100249.07
2018-09-03T07:45:36.727Z,100246.73
2018-09-03T07:48:13.822Z,100246.58
2018-09-03T07:50:48.593Z,100249.27
2018-09-03T07:53:22.340Z,100252.29
2018-09-03T07:55:57.851Z,100254.13
2018-09-03T07:58:32.792Z,100247.86
2018-09-03T08:01:10.324Z,100247.52
2018-09-03T08:03:42.804Z,100253.89
2018-09-03T08:06:17.023Z,100254.47
2018-09-03T08:08:51.017Z,100260.11
2018-09-03T08:11:24.071Z,100264.45
2018-09-03T08:13:57.706Z,100260.93
2018-09-03T08:16:30.439Z,100259.43
2018-09-03T08:19:04.840Z,100257.29
2018-09-03T08:21:37.999Z,100253.23
2018-09-03T08:24:11.912Z,100250.47
2018-09-03T08:26:45.854Z,100257.72
2018-09-03T08:29:19.522Z,100254.22
2018-09-03T08:31:55.311Z,100249.66
2018-09-03T08:34:32.568Z,100250.57
2018-09-03T08:37:08.905Z,100252.82
2018-09-03T08:39:45.501Z,100251.38
2018-09-03T08:42:19.836Z,100245.04
2018-09-03T08:44:56.214Z,100245.58
2018-09-03T08:47:29.306Z,100257.56
2018-09-03T08:50:04.417Z,100252.02
2018-09-03T08:52:39.123Z,100253.77
2018-09-03T08:55:11.721Z,100257.09
2018-09-03T08:57:47.310Z,100257.05
2018-09-03T09:00:22.668Z,100257.41
2018-09-03T09:02:57.608Z,100260.65
2018-09-03T09:05:33.859Z,100249.02
2018-09-03T09:08:10.016Z,100252.92
2018-09-03T09:10:44.489Z,100247.17
2018-09-03T09:13:18.791Z,100247.36
2018-09-03T09:15:53.916Z,100252.53
2018-09-03T09:18:29.609Z,100250.16
2018-09-03T09:21:03.956Z,100251.77
2018-09-03T09:23:39.621Z,100248.38
2018-09-03T09:26:14.581Z,100253.31
2018-09-03T09:28:48.125Z,100252.03
2018-09-03T09:31:22.474Z,100256.58
2018-09-03T09:34:00.304Z,100248.98
2018-09-03T09:36:34.032Z,100251.48
2018-09-03T09:39:12.552Z,100248.47
2018-09-03T09:41:47.925Z,100244.06
2018-09-03T09:44:20.437Z,100245.73
2018-09-03T09:46:57.475Z,100243.21
2018-09-03T09:49:30.022Z,100234.08
2018-09-03T09:52:03.948Z,100234.55
2018-09-03T09:54:36.705Z,100236.05
2018-09-03T09:57:12.334Z,100234.83
2018-09-03T09:59:45.942Z,100237.30
2018-09-03T10:02:19.860Z,100229.88
2018-09-03T10:04:52.873Z,100223.55
2018-09-03T10:07:26.781Z,100222.10
2018-09-03T10:10:00.692Z,100218.34
2018-09-03T10:12:34.529Z,100213.38
2018-09-03T10:15:07.024Z,100212.41
2018-09-03T10:17:40.426Z,100210.68
2018-09-03T10:20:14.107Z,100203.74
2018-09-03T10:22:47.617Z,100198.78
2018-09-03T10:25:20.993Z,100197.97
2018-09-03T10:27:54.526Z,100195.08
2018-09-03T10:30:54.859Z,100191.62
2018-09-03T10:33:37.927Z,100186.48
2018-09-03T10:36:10.761Z,100181.34
2018-09-03T10:38:46.878Z,100178.39
2018-09-03T10:41:19.872Z,100181.52
2018-09-03T10:43:53.777Z,100170.84
2018-09-03T10:46:28.019Z,100168.34
2018-09-03T10:49:02.659Z,100171.34
2018-09-03T10:51:36.944Z,100171.40
2018-09-03T10:54:12.039Z,100168.70
2018-09-03T10:56:45.263Z,100167.01
2018-09-03T10:59:18.704Z,100154.38
2018-09-03T11:01:54.624Z,100148.36
2018-09-03T11:04:31.387Z,100146.39
2018-09-03T11:07:04.088Z,100154.85
2018-09-03T11:09:43.721Z,100151.97
2018-09-03T11:12:19.657Z,100149.63
2018-09-03T11:14:52.262Z,100150.16
2018-09-03T11:17:27.227Z,100148.05
2018-09-03T11:20:06.857Z,100147.33
2018-09-03T11:22:40.228Z,100148.66
2018-09-03T11:25:19.354Z,100150.11
2018-09-03T11:27:53.712Z,100145.73
2018-09-03T11:30:29.917Z,100142.95
2018-09-03T11:33:04.548Z,100131.80
2018-09-03T11:35:39.060Z,100131.33
2018-09-03T11:38:16.946Z,100126.03
2018-09-03T11:40:54.085Z,100120.73
2018-09-03T11:43:27.296Z,100126.29
2018-09-03T11:45:59.812Z,100124.97
2018-09-03T11:48:32.443Z,100116.13
2018-09-03T11:51:05.193Z,100113.41
2018-09-03T11:53:38.480Z,100117.34
2018-09-03T11:56:11.017Z,100114.16
2018-09-03T11:58:45.207Z,100116.98
2018-09-03T12:01:20.112Z,100120.20
2018-09-03T12:03:52.644Z,100112.70
2018-09-03T12:06:25.285Z,100114.73
2018-09-03T12:09:03.405Z,100117.09
2018-09-03T12:11:37.674Z,100118.03
2018-09-03T12:14:18.552Z,100120.18
2018-09-03T12:16:52.272Z,100108.56
2018-09-03T12:19:25.645Z,100116.05
2018-09-03T12:22:04.018Z,100116.09
2018-09-03T12:24:39.606Z,100116.38
2018-09-03T12:27:16.720Z,100122.09
2018-09-03T12:29:50.917Z,100120.24
2018-09-03T12:32:26.270Z,100118.82
2018-09-03T12:34:59.437Z,100119.34
2018-09-03T12:37:34.320Z,100115.22
2018-09-03T12:40:07.356Z,100114.61
2018-09-03T12:42:41.314Z,100106.99
2018-09-03T12:45:59.311Z,100111.36
2018-09-03T12:48:32.995Z,100099.50
2018-09-03T12:51:05.786Z,100099.64
2018-09-03T12:53:38.717Z,100103.47
2018-09-03T12:56:12.265Z,100104.07
2018-09-03T12:58:47.802Z,100101.75
2018-09-03T13:01:21.609Z,100098.58
2018-09-03T13:03:57.215Z,100103.69
2018-09-03T13:06:31.339Z,100107.34
2018-09-03T13:09:07.213Z,100104.27
2018-09-03T13:11:39.830Z,100100.89
2018-09-03T13:14:13.963Z,100104.95
2018-09-03T13:16:49.315Z,100109.30
2018-09-03T13:19:23.940Z,100105.04
2018-09-03T13:21:59.477Z,100100.06
2018-09-03T13:24:36.564Z,100093.83
2018-09-03T13:27:11.188Z,100094.91
2018-09-03T13:29:46.720Z,100088.63
2018-09-03T13:32:21.313Z,100089.53
2018-09-03T13:34:56.226Z,100088.89
2018-09-03T13:37:31.024Z,100085.43
2018-09-03T13:40:05.356Z,100084.14
2018-09-03T13:42:40.209Z,100085.14
2018-09-03T13:45:15.873Z,100086.15
2018-09-03T13:47:49.254Z,100087.12
2018-09-03T13:50:23.874Z,100083.08
2018-09-03T13:52:56.514Z,100084.27
2018-09-03T13:55:29.109Z,100081.69
2018-09-03T13:58:03.936Z,100083.94
2018-09-03T14:00:36.624Z,100077.95
2018-09-03T14:03:10.812Z,100076.97
2018-09-03T14:05:44.500Z,100075.20
2018-09-03T14:08:21.693Z,100080.47
2018-09-03T14:10:56.791Z,100086.93
2018-09-03T14:13:30.324Z,100085.80
2018-09-03T14:16:06.476Z,100092.77
2018-09-03T14:18:40.021Z,100094.39
2018-09-03T14:21:13.636Z,100099.50
2018-09-03T14:23:48.854Z,100096.86
2018-09-03T14:26:24.148Z,100088.66
2018-09-03T14:28:57.673Z,100088.63
2018-09-03T14:31:33.348Z,100085.34
2018-09-03T14:34:08.546Z,100082.95
2018-09-03T14:36:44.824Z,100082.51
2018-09-03T14:39:22.372Z,100078.41
2018-09-03T14:41:54.827Z,100083.55
2018-09-03T14:44:31.646Z,100077.14
2018-09-03T14:47:06.242Z,100084.14
2018-09-03T14:49:40.776Z,100085.32
2018-09-03T14:52:15.498Z,100081.64
2018-09-03T14:54:49.346Z,100083.70
2018-09-03T14:57:23.329Z,100082.10
2018-09-03T15:00:00.857Z,100081.08
2018-09-03T15:02:40.446Z,100083.55
2018-09-03T15:05:13.998Z,100081.38
2018-09-03T15:07:49.945Z,100081.48
2018-09-03T15:10:23.108Z,100077.13
2018-09-03T15:12:56.652Z,100071.02
2018-09-03T15:15:33.353Z,100067.87
2018-09-03T15:18:11.325Z,100073.58
2018-09-03T15:20:49.566Z,100076.14
2018-09-03T15:23:27.929Z,100081.56
2018-09-03T15:26:10.005Z,100079.31
2018-09-03T15:28:49.660Z,100081.96
2018-09-03T15:31:28.419Z,100074.69
2018-09-03T15:34:06.714Z,100078.27
2018-09-03T15:36:47.346Z,100079.23
2018-09-03T15:39:25.318Z,100078.64
2018-09-03T15:42:04.759Z,100077.22
2018-09-03T15:44:43.025Z,100075.90
2018-09-03T15:47:22.244Z,100072.73
2018-09-03T15:50:01.774Z,100070.37
2018-09-03T15:52:37.188Z,100074.45
2018-09-03T15:55:10.387Z,100068.78
2018-09-03T15:57:44.080Z,100070.26
2018-09-03T16:00:17.327Z,100077.47
2018-09-03T16:02:52.634Z,100076.52
2018-09-03T16:05:26.175Z,100078.00
2018-09-03T16:08:05.295Z,100078.77
2018-09-03T16:10:39.932Z,100076.23
2018-09-03T16:13:14.699Z,100073.97
2018-09-03T16:15:49.612Z,100073.95
2018-09-03T16:18:22.552Z,100070.75
2018-09-03T16:20:57.847Z,100069.78
2018-09-03T16:23:30.493Z,100070.91
2018-09-03T16:26:04.154Z,100070.33
2018-09-03T16:28:38.746Z,100065.84
2018-09-03T16:31:13.394Z,100067.86
2018-09-03T16:33:46.332Z,100062.82
2018-09-03T16:36:20.653Z,100058.30
2018-09-03T16:38:55.377Z,100061.84
2018-09-03T16:41:29.220Z,100064.02
2018-09-03T16:44:05.112Z,100064.70
2018-09-03T16:46:37.704Z,100064.56
2018-09-03T16:49:12.509Z,100068.04
2018-09-03T16:51:47.921Z,100069.77
2018-09-03T16:54:23.646Z,100076.02
2018-09-03T16:56:57.916Z,100071.82
2018-09-03T16:59:32.077Z,100069.41
2018-09-03T17:02:05.627Z,100069.34
2018-09-03T17:04:39.953Z,100070.09
2018-09-03T17:07:14.368Z,100073.55
2018-09-03T17:09:49.436Z,100070.39
2018-09-03T17:12:28.842Z,100062.94
2018-09-03T17:15:05.001Z,100066.40
2018-09-03T17:17:39.817Z,100072.06
2018-09-03T17:20:17.121Z,100070.15
2018-09-03T17:22:52.323Z,100073.22
2018-09-03T17:25:25.832Z,100070.31
2018-09-03T17:28:00.854Z,100072.28
2018-09-03T17:30:35.593Z,100072.81
2018-09-03T17:33:11.619Z,100078.88
2018-09-03T17:35:46.113Z,100074.27
2018-09-03T17:38:20.966Z,100074.03
2018-09-03T17:40:53.554Z,100078.05
2018-09-03T17:43:26.297Z,100078.36
2018-09-03T17:45:59.227Z,100076.94
2018-09-03T17:48:33.352Z,100073.96
2018-09-03T17:51:07.615Z,100076.80
2018-09-03T17:53:41.826Z,100076.20
2018-09-03T17:56:18.590Z,100071.22
2018-09-03T17:58:51.411Z,100072.28
2018-09-03T18:01:24.581Z,100072.69
2018-09-03T18:04:00.637Z,100070.59
2018-09-03T18:06:34.170Z,100074.40
2018-09-03T18:09:09.525Z,100080.17
2018-09-03T18:11:43.820Z,100077.03
2018-09-03T18:14:16.487Z,100077.23
2018-09-03T18:16:49.446Z,100077.10
2018-09-03T18:19:25.192Z,100076.70
2018-09-03T18:22:00.023Z,100072.78
2018-09-03T18:24:35.744Z,100070.33
2018-09-03T18:27:09.036Z,100076.75
2018-09-03T18:29:41.696Z,100078.89
2018-09-03T18:32:18.950Z,100076.07
2018-09-03T18:34:54.041Z,100078.10
2018-09-03T18:37:29.398Z,100071.46
2018-09-03T18:40:06.915Z,100067.80
2018-09-03T18:42:41.080Z,100063.10
2018-09-03T18:45:16.157Z,100058.54
2018-09-03T18:47:49.412Z,100066.01
2018-09-03T18:50:22.240Z,100078.79
2018-09-03T18:52:58.376Z,100081.27
2018-09-03T18:55:32.432Z,100080.98
2018-09-03T18:58:07.502Z,100081.67
2018-09-03T19:00:42.233Z,100087.30
2018-09-03T19:03:14.817Z,100093.42
2018-09-03T19:05:54.475Z,100095.31
2018-09-03T19:08:29.521Z,100100.23
2018-09-03T19:11:03.700Z,100103.63
2018-09-03T19:13:41.222Z,100107.23
2018-09-03T19:16:16.593Z,100098.19
2018-09-03T19:18:55.253Z,100090.15
2018-09-03T19:21:30.561Z,100084.13
2018-09-03T19:24:06.596Z,100080.14
2018-09-03T19:26:44.105Z,100085.82
2018-09-03T19:29:17.683Z,100091.75
2018-09-03T19:31:57.694Z,100085.97
2018-09-03T19:34:37.890Z,100082.55
2018-09-03T19:37:11.916Z,100082.73
2018-09-03T19:39:45.951Z,100075.22
2018-09-03T19:42:19.054Z,100072.22
2018-09-03T19:44:54.797Z,100071.84
2018-09-03T19:47:27.853Z,100067.98
2018-09-03T19:50:01.450Z,100071.37
2018-09-03T19:52:34.216Z,100077.05
2018-09-03T19:55:09.023Z,100075.20
2018-09-03T19:57:43.360Z,100073.97
2018-09-03T20:00:17.711Z,100073.28
2018-09-03T20:02:51.017Z,100076.70
2018-09-03T20:05:24.311Z,100076.95
2018-09-03T20:07:57.628Z,100080.44
2018-09-03T20:10:32.653Z,100079.43
2018-09-03T20:13:07.324Z,100081.63
2018-09-03T20:15:40.908Z,100079.48
2018-09-03T20:18:14.938Z,100077.55
2018-09-03T20:20:49.453Z,100078.48
2018-09-03T20:23:23.766Z,100069.69
2018-09-03T20:26:00.661Z,100070.22
2018-09-03T20:28:36.411Z,100069.59
2018-09-03T20:31:11.152Z,100069.38
2018-09-03T20:33:46.116Z,100067.42
2018-09-03T20:36:18.639Z,100070.08
2018-09-03T20:38:54.444Z,100067.95
2018-09-03T20:41:29.457Z,100066.83
2018-09-03T20:44:10.497Z,100071.84
2018-09-03T20:46:51.809Z,100070.03
2018-09-03T20:49:25.633Z,100070.11
2018-09-03T20:52:00.685Z,100076.09
2018-09-03T20:54:33.461Z,100075.62
2018-09-03T20:57:09.825Z,100076.09
2018-09-03T20:59:43.675Z,100070.09
2018-09-03T21:02:20.270Z,100073.77
2018-09-03T21:04:54.241Z,100071.50
2018-09-03T21:07:27.709Z,100069.47
2018-09-03T21:10:03.652Z,100073.32
2018-09-03T21:12:37.993Z,100068.39
2018-09-03T21:15:12.618Z,100071.66
2018-09-03T21:17:46.245Z,100075.39
2018-09-03T21:20:19.664Z,100078.86
2018-09-03T21:22:52.504Z,100075.14
2018-09-03T21:25:27.916Z,100078.70
2018-09-03T21:28:01.462Z,100084.08
2018-09-03T21:30:34.291Z,100083.66
2018-09-03T21:33:07.308Z,100086.92
2018-09-03T21:35:40.048Z,100076.03
2018-09-03T21:38:14.483Z,100080.81
2018-09-03T21:40:48.775Z,100080.41
2018-09-03T21:43:22.095Z,100079.98
2018-09-03T21:45:54.653Z,100077.53
2018-09-03T21:48:29.885Z,100079.42
2018-09-03T21:51:04.508Z,100075.18
2018-09-03T21:53:38.096Z,100068.92
2018-09-03T21:56:12.402Z,100073.89
2018-09-03T21:58:46.144Z,100074.11
2018-09-03T22:01:20.082Z,100078.36
2018-09-03T22:03:53.134Z,100078.85
2018-09-03T22:06:27.705Z,100082.23
2018-09-03T22:09:03.122Z,100084.00
2018-09-03T22:11:37.725Z,100081.57
2018-09-03T22:14:12.502Z,100083.72
2018-09-03T22:19:18.291Z,100080.40
2018-09-03T22:21:52.775Z,100081.84
2018-09-03T22:24:25.899Z,100081.37
2018-09-03T22:26:59.997Z,100081.31
2018-09-03T22:29:32.728Z,100084.41
2018-09-03T22:32:05.808Z,100084.97
2018-09-03T22:34:39.682Z,100085.03
2018-09-03T22:37:12.148Z,100085.58
2018-09-03T22:39:44.828Z,100087.23
2018-09-03T22:42:18.380Z,100084.85
2018-09-03T22:44:51.561Z,100076.64
2018-09-03T22:47:24.423Z,100081.69
2018-09-03T22:50:01.135Z,100079.02
2018-09-03T22:52:33.824Z,100077.52
2018-09-03T22:55:07.967Z,100078.27
2018-09-03T22:57:42.691Z,100075.92
2018-09-03T23:00:19.299Z,100080.52
2018-09-03T23:02:52.592Z,100083.44
2018-09-03T23:05:25.928Z,100089.31
2018-09-03T23:07:58.495Z,100086.72
2018-09-03T23:10:32.026Z,100081.42
2018-09-03T23:13:04.938Z,100080.78
2018-09-03T23:15:50.096Z,100080.78
2018-09-03T23:18:23.800Z,100082.61
2018-09-03T23:20:58.018Z,100079.16
2018-09-03T23:23:30.524Z,100074.58
2018-09-03T23:26:04.008Z,100071.77
2018-09-03T23:28:37.712Z,100072.84
2018-09-03T23:31:10.372Z,100066.77
2018-09-03T23:33:43.792Z,100061.95
2018-09-03T23:36:17.983Z,100058.44
2018-09-03T23:38:51.557Z,100061.37
2018-09-03T23:41:24.361Z,100054.63
2018-09-03T23:43:57.328Z,100054.95
2018-09-03T23:46:29.935Z,100058.98
2018-09-03T23:49:03.282Z,100063.39
2018-09-03T23:51:37.029Z,100057.61
2018-09-03T23:54:10.231Z,100061.59
2018-09-03T23:56:44.397Z,100062.98
2018-09-03T23:59:17.903Z,100063.47
